createdAt,value
2023-03-22T00:01:24.801Z,7.88
2023-03-22T00:03:56.705Z,7.81
2023-03-22T00:06:24.169Z,7.74
2023-03-22T00:08:52.065Z,7.69
2023-03-22T00:11:22.136Z,7.62
2023-03-22T00:13:52.642Z,7.53
2023-03-22T00:16:20.441Z,7.46
2023-03-22T00:18:47.215Z,7.43
2023-03-22T00:21:15.480Z,7.42
2023-03-22T00:23:42.657Z,7.33
2023-03-22T00:26:14.320Z,7.24
2023-03-22T00:28:41.646Z,7.17
2023-03-22T00:31:09.333Z,7.12
2023-03-22T00:33:38.753Z,7.06
2023-03-22T00:36:07.797Z,6.98
2023-03-22T00:38:44.952Z,6.92
2023-03-22T00:41:31.416Z,6.89
2023-03-22T00:43:58.038Z,6.83
2023-03-22T00:46:24.588Z,6.77
2023-03-22T00:48:51.140Z,6.73
2023-03-22T00:51:18.204Z,6.68
2023-03-22T00:53:44.779Z,6.63
2023-03-22T00:56:18.173Z,6.55
2023-03-22T00:58:47.372Z,6.54
2023-03-22T01:01:14.852Z,6.50
2023-03-22T01:03:43.112Z,6.45
2023-03-22T01:06:10.529Z,6.39
2023-03-22T01:08:39.235Z,6.32
2023-03-22T01:11:09.203Z,6.26
2023-03-22T01:13:41.709Z,6.26
2023-03-22T01:16:09.475Z,6.24
2023-03-22T01:18:45.507Z,6.20
2023-03-22T01:21:12.948Z,6.16
2023-03-22T01:23:39.618Z,6.13
2023-03-22T01:26:08.615Z,6.09
2023-03-22T01:28:35.259Z,6.07
2023-03-22T01:31:02.591Z,6.05
2023-03-22T01:33:29.487Z,6.05
2023-03-22T01:35:59.594Z,6.05
2023-03-22T01:38:26.322Z,5.99
2023-03-22T01:40:54.757Z,5.91
2023-03-22T01:43:21.608Z,5.89
2023-03-22T01:45:50.345Z,5.83
2023-03-22T01:48:47.810Z,5.79
2023-03-22T01:51:22.574Z,5.78
2023-03-22T01:54:03.282Z,5.80
2023-03-22T01:56:34.367Z,5.80
2023-03-22T01:59:01.770Z,5.80
2023-03-22T02:01:35.140Z,5.74
2023-03-22T02:04:07.308Z,5.72
2023-03-22T02:06:38.424Z,5.74
2023-03-22T02:09:07.927Z,5.76
2023-03-22T02:11:39.094Z,5.81
2023-03-22T02:14:16.402Z,5.85
2023-03-22T02:17:08.535Z,5.79
2023-03-22T02:19:44.154Z,5.74
2023-03-22T02:22:48.263Z,5.68
2023-03-22T02:25:47.440Z,5.63
2023-03-22T02:28:38.124Z,5.56
2023-03-22T02:31:26.365Z,5.54
2023-03-22T02:34:14.615Z,5.45
2023-03-22T02:36:56.566Z,5.41
2023-03-22T02:39:56.982Z,5.36
2023-03-22T02:42:41.273Z,5.31
2023-03-22T02:45:33.850Z,5.26
2023-03-22T02:48:28.468Z,5.20
2023-03-22T02:51:00.700Z,5.20
2023-03-22T02:53:40.889Z,5.18
2023-03-22T02:57:02.661Z,5.12
2023-03-22T02:59:33.587Z,5.10
2023-03-22T03:02:03.774Z,5.09
2023-03-22T03:04:38.141Z,5.05
2023-03-22T03:07:09.433Z,5.02
2023-03-22T03:09:41.458Z,4.97
2023-03-22T03:12:19.707Z,4.91
2023-03-22T03:14:48.385Z,4.96
2023-03-22T03:17:21.200Z,4.94
2023-03-22T03:20:10.538Z,4.89
2023-03-22T03:22:37.288Z,4.89
2023-03-22T03:25:18.522Z,4.90
2023-03-22T03:27:59.372Z,4.92
2023-03-22T03:30:34.484Z,4.99
2023-03-22T03:33:09.299Z,5.03
2023-03-22T03:35:43.796Z,5.09
2023-03-22T03:38:15.712Z,5.10
2023-03-22T03:40:49.448Z,5.12
2023-03-22T03:43:19.340Z,5.14
2023-03-22T03:45:46.120Z,5.11
2023-03-22T03:48:21.876Z,5.04
2023-03-22T03:50:51.935Z,4.97
2023-03-22T03:53:18.838Z,4.93
2023-03-22T03:55:47.137Z,4.89
2023-03-22T03:58:21.595Z,4.79
2023-03-22T04:00:51.512Z,4.75
2023-03-22T04:03:18.308Z,4.72
2023-03-22T04:05:45.940Z,4.68
2023-03-22T04:08:14.313Z,4.65
2023-03-22T04:10:41.143Z,4.59
2023-03-22T04:13:07.948Z,4.48
2023-03-22T04:15:38.916Z,4.41
2023-03-22T04:18:05.421Z,4.36
2023-03-22T04:20:31.914Z,4.29
2023-03-22T04:22:58.896Z,4.25
2023-03-22T04:25:30.499Z,4.20
2023-03-22T04:28:02.376Z,4.16
2023-03-22T04:30:30.817Z,4.14
2023-03-22T04:32:57.283Z,4.10
2023-03-22T04:35:25.509Z,4.17
2023-03-22T04:37:53.832Z,4.20
2023-03-22T04:40:20.838Z,4.20
2023-03-22T04:42:47.562Z,4.21
2023-03-22T04:45:14.467Z,4.22
2023-03-22T04:47:41.146Z,4.18
2023-03-22T04:50:10.273Z,4.14
2023-03-22T04:52:36.753Z,4.08
2023-03-22T04:55:03.398Z,4.06
2023-03-22T04:57:31.746Z,4.05
2023-03-22T04:59:58.275Z,4.07
2023-03-22T05:02:25.012Z,4.13
2023-03-22T05:04:51.760Z,4.13
2023-03-22T05:07:18.274Z,4.15
2023-03-22T05:09:44.717Z,4.18
2023-03-22T05:12:18.105Z,4.27
2023-03-22T05:14:44.616Z,4.33
2023-03-22T05:17:11.232Z,4.32
2023-03-22T05:19:37.826Z,4.35
2023-03-22T05:22:04.383Z,4.38
2023-03-22T05:24:34.654Z,4.36
2023-03-22T05:27:03.418Z,4.37
2023-03-22T05:29:37.113Z,4.39
2023-03-22T05:32:04.380Z,4.40
2023-03-22T05:34:35.836Z,4.42
2023-03-22T05:37:03.400Z,4.51
2023-03-22T05:39:32.331Z,4.58
2023-03-22T05:41:58.833Z,4.68
2023-03-22T05:44:25.401Z,4.75
2023-03-22T05:46:52.020Z,4.79
2023-03-22T05:49:19.141Z,4.92
2023-03-22T05:51:47.953Z,5.10
2023-03-22T05:54:16.209Z,5.40
2023-03-22T05:56:44.191Z,5.68
2023-03-22T05:59:10.968Z,5.91
2023-03-22T06:01:37.677Z,6.05
2023-03-22T06:04:04.477Z,6.09
2023-03-22T06:06:31.002Z,6.37
2023-03-22T06:09:07.306Z,6.69
2023-03-22T06:11:42.376Z,7.05
2023-03-22T06:14:09.106Z,7.26
2023-03-22T06:16:35.951Z,7.23
2023-03-22T06:19:02.794Z,7.05
2023-03-22T06:21:31.149Z,7.16
2023-03-22T06:23:57.857Z,7.15
2023-03-22T06:26:24.377Z,7.24
2023-03-22T06:29:03.709Z,7.34
2023-03-22T06:31:31.039Z,7.56
2023-03-22T06:34:00.849Z,7.83
2023-03-22T06:36:29.652Z,7.70
2023-03-22T06:38:57.217Z,7.82
2023-03-22T06:41:26.023Z,8.07
2023-03-22T06:43:54.899Z,8.20
2023-03-22T06:46:21.444Z,8.45
2023-03-22T06:48:47.968Z,8.56
2023-03-22T06:54:05.039Z,8.88
2023-03-22T06:56:31.502Z,9.03
2023-03-22T06:59:00.141Z,9.27
2023-03-22T07:01:26.818Z,9.36
2023-03-22T07:03:53.324Z,9.40
2023-03-22T07:06:19.795Z,9.50
2023-03-22T07:08:54.509Z,9.60
2023-03-22T07:11:21.053Z,9.85
2023-03-22T07:13:47.552Z,10.07
2023-03-22T07:16:14.291Z,10.19
2023-03-22T07:18:40.854Z,10.17
2023-03-22T07:21:07.620Z,10.23
2023-03-22T07:23:34.106Z,10.22
2023-03-22T07:26:01.062Z,10.32
2023-03-22T07:28:27.815Z,10.28
2023-03-22T07:31:16.690Z,10.48
2023-03-22T07:33:43.725Z,10.60
2023-03-22T07:36:10.662Z,10.60
2023-03-22T07:38:39.434Z,10.63
2023-03-22T07:41:06.307Z,10.56
2023-03-22T07:43:37.165Z,10.75
2023-03-22T07:46:17.508Z,11.38
2023-03-22T07:48:44.076Z,11.78
2023-03-22T07:51:10.600Z,12.23
2023-03-22T07:53:37.401Z,12.68
2023-03-22T07:56:05.149Z,13.02
2023-03-22T07:58:31.963Z,13.36
2023-03-22T08:01:05.080Z,14.47
2023-03-22T08:03:31.590Z,15.57
2023-03-22T08:06:03.820Z,17.29
2023-03-22T08:08:30.581Z,19.61
2023-03-22T08:10:57.469Z,20.39
2023-03-22T08:13:23.968Z,20.50
2023-03-22T08:15:50.607Z,21.80
2023-03-22T08:18:17.086Z,21.76
2023-03-22T08:20:45.445Z,22.67
2023-03-22T08:23:16.298Z,22.46
2023-03-22T08:25:43.379Z,22.52
2023-03-22T08:28:10.654Z,23.24
2023-03-22T08:30:44.992Z,23.46
2023-03-22T08:33:11.737Z,23.62
2023-03-22T08:35:38.594Z,24.65
2023-03-22T08:38:07.342Z,25.79
2023-03-22T08:40:34.170Z,26.66
2023-03-22T08:43:03.089Z,27.47
2023-03-22T08:45:29.967Z,28.10
2023-03-22T08:47:57.605Z,28.32
2023-03-22T08:50:24.256Z,28.00
2023-03-22T08:52:51.140Z,27.17
2023-03-22T08:55:18.162Z,25.57
2023-03-22T08:57:44.808Z,23.58
2023-03-22T09:00:15.609Z,24.51
2023-03-22T09:02:42.109Z,25.69
2023-03-22T09:05:09.294Z,26.45
2023-03-22T09:07:42.400Z,26.93
2023-03-22T09:10:10.068Z,27.91
2023-03-22T09:12:37.470Z,27.99
2023-03-22T09:15:07.958Z,28.12
2023-03-22T09:17:34.818Z,28.72
2023-03-22T09:20:12.063Z,28.38
2023-03-22T09:22:39.543Z,28.34
2023-03-22T09:25:07.439Z,27.78
2023-03-22T09:27:34.134Z,26.44
2023-03-22T09:30:02.620Z,26.42
2023-03-22T09:32:33.147Z,26.34
2023-03-22T09:35:01.822Z,26.68
2023-03-22T09:37:32.066Z,26.99
2023-03-22T09:39:58.625Z,27.03
2023-03-22T09:42:31.386Z,26.84
2023-03-22T09:45:00.200Z,26.79
2023-03-22T09:47:49.042Z,25.14
2023-03-22T09:50:21.606Z,26.86
2023-03-22T09:52:50.195Z,27.10
2023-03-22T09:55:28.964Z,27.57
2023-03-22T09:58:27.276Z,26.44
2023-03-22T10:01:04.756Z,27.01
2023-03-22T10:03:55.831Z,26.55
2023-03-22T10:06:28.301Z,26.64
2023-03-22T10:09:13.941Z,26.42
2023-03-22T10:11:55.161Z,25.78
2023-03-22T10:14:32.781Z,24.57
2023-03-22T10:17:13.504Z,24.61
2023-03-22T10:20:09.470Z,23.52
2023-03-22T10:22:44.445Z,22.56
2023-03-22T10:25:18.755Z,21.66
2023-03-22T10:27:50.551Z,21.56
2023-03-22T10:30:21.739Z,21.08
2023-03-22T10:33:03.481Z,20.90
2023-03-22T10:35:31.877Z,20.65
2023-03-22T10:38:02.457Z,20.61
2023-03-22T10:40:33.078Z,20.58
2023-03-22T10:43:06.298Z,20.67
2023-03-22T10:45:34.858Z,20.71
2023-03-22T10:48:07.468Z,20.38
2023-03-22T10:50:38.709Z,20.36
2023-03-22T10:53:37.633Z,20.77
2023-03-22T10:56:05.681Z,20.91
2023-03-22T11:01:37.575Z,21.21
2023-03-22T11:04:08.047Z,21.23
2023-03-22T11:06:40.761Z,21.14
2023-03-22T11:09:13.747Z,20.87
2023-03-22T11:12:02.407Z,20.93
2023-03-22T11:14:31.958Z,20.92
2023-03-22T11:17:08.581Z,20.73
2023-03-22T11:19:42.104Z,20.43
2023-03-22T11:22:33.598Z,20.33
2023-03-22T11:25:01.073Z,20.60
2023-03-22T11:27:30.302Z,21.00
2023-03-22T11:30:20.439Z,21.32
2023-03-22T11:32:47.494Z,21.44
2023-03-22T11:35:24.933Z,21.55
2023-03-22T11:37:55.636Z,21.57
2023-03-22T11:40:47.835Z,21.52
2023-03-22T11:43:21.358Z,21.37
2023-03-22T11:45:53.487Z,21.45
2023-03-22T11:48:25.644Z,21.56
2023-03-22T11:50:56.685Z,21.65
2023-03-22T11:53:26.966Z,21.52
2023-03-22T11:55:57.679Z,21.40
2023-03-22T11:58:42.844Z,21.19
2023-03-22T12:02:05.074Z,21.16
2023-03-22T12:04:37.898Z,21.25
2023-03-22T12:07:13.282Z,21.29
2023-03-22T12:10:00.582Z,21.10
2023-03-22T12:12:31.833Z,21.07
2023-03-22T12:15:13.758Z,21.20
2023-03-22T12:17:54.941Z,21.38
2023-03-22T12:20:45.329Z,21.29
2023-03-22T12:23:18.943Z,21.21
2023-03-22T12:25:59.758Z,20.96
2023-03-22T12:29:14.013Z,21.20
2023-03-22T12:31:48.297Z,21.28
2023-03-22T12:34:22.685Z,21.20
2023-03-22T12:36:59.119Z,21.16
2023-03-22T12:39:33.823Z,21.14
2023-03-22T12:42:07.120Z,21.16
2023-03-22T12:44:40.417Z,21.29
2023-03-22T12:47:32.415Z,21.37
2023-03-22T12:50:05.280Z,21.25
2023-03-22T12:52:45.424Z,21.07
2023-03-22T12:55:32.331Z,21.01
2023-03-22T12:58:05.907Z,20.96
2023-03-22T13:00:42.641Z,20.77
2023-03-22T13:03:22.766Z,20.75
2023-03-22T13:06:05.983Z,20.58
2023-03-22T13:09:08.485Z,20.33
2023-03-22T13:11:35.904Z,20.42
2023-03-22T13:14:02.511Z,20.36
2023-03-22T13:16:51.938Z,20.28
2023-03-22T13:19:33.138Z,20.36
2023-03-22T13:22:20.148Z,20.34
2023-03-22T13:25:14.636Z,20.35
2023-03-22T13:28:18.931Z,20.16
2023-03-22T13:30:52.600Z,20.29
2023-03-22T13:33:33.099Z,20.28
2023-03-22T13:36:07.464Z,20.04
2023-03-22T13:38:42.505Z,19.97
2023-03-22T13:41:24.524Z,19.84
2023-03-22T13:43:54.422Z,19.82
2023-03-22T13:46:23.802Z,19.82
2023-03-22T13:49:00.844Z,19.79
2023-03-22T13:51:34.231Z,19.69
2023-03-22T13:54:15.399Z,19.89
2023-03-22T13:56:44.488Z,19.97
2023-03-22T13:59:18.302Z,19.90
2023-03-22T14:02:18.495Z,19.89
2023-03-22T14:04:50.565Z,19.98
2023-03-22T14:07:28.108Z,19.87
2023-03-22T14:10:02.653Z,19.97
2023-03-22T14:13:05.741Z,19.95
2023-03-22T14:15:41.452Z,19.98
2023-03-22T14:18:26.753Z,19.98
2023-03-22T14:20:59.793Z,19.98
